Kirby, Ohio
Current Conditions -  °F | °C
As of 3:19 AM on Friday 19 Dec 2014 (Local Time) from KFDY Reporting Station
Haze Haze  
Wind Chill: 21°   Ceiling: 2700
Heat Index: 29°   Visibility: 6mi
Dew Point: 24°   Wind: 8mph
Humidity: 82%   Direction: 270°W
Pressure: 30.21"   Gusts: NA
Location:  40.81°N, 83.42°W
Report Text: KFDY 190819Z AUTO 27007KT 6SM HZ SCT011 OVC027 M02/M04 A3021 RMK AO2 T10171044
Loading
Personal Weather Stations






























Interactive Weather Map New forecast layout! Learn more

10-Day Weather Forecast

Advertisements
Track Severe Weather on mobile